sensor_id;sensor_type;location;lat;lon;timestamp;temperature;humidity
70826;SHT31;58446;41.490;22.098;2023-04-03T00:02:17;12.68;58.73
70826;SHT31;58446;41.490;22.098;2023-04-03T00:04:42;12.39;59.14
70826;SHT31;58446;41.490;22.098;2023-04-03T00:07:08;12.25;59.70
70826;SHT31;58446;41.490;22.098;2023-04-03T00:09:34;12.21;60.13
70826;SHT31;58446;41.490;22.098;2023-04-03T00:12:01;12.10;60.55
70826;SHT31;58446;41.490;22.098;2023-04-03T00:14:27;12.04;60.90
70826;SHT31;58446;41.490;22.098;2023-04-03T00:16:53;12.11;60.68
70826;SHT31;58446;41.490;22.098;2023-04-03T00:19:18;12.31;59.89
70826;SHT31;58446;41.490;22.098;2023-04-03T00:21:45;12.50;59.62
70826;SHT31;58446;41.490;22.098;2023-04-03T00:24:11;12.53;59.48
70826;SHT31;58446;41.490;22.098;2023-04-03T00:26:36;12.58;59.38
70826;SHT31;58446;41.490;22.098;2023-04-03T00:29:02;12.36;60.02
70826;SHT31;58446;41.490;22.098;2023-04-03T00:31:28;12.48;59.49
70826;SHT31;58446;41.490;22.098;2023-04-03T00:33:53;12.46;60.11
70826;SHT31;58446;41.490;22.098;2023-04-03T00:36:19;12.63;59.09
70826;SHT31;58446;41.490;22.098;2023-04-03T00:38:45;12.69;58.73
70826;SHT31;58446;41.490;22.098;2023-04-03T00:41:11;12.86;58.43
70826;SHT31;58446;41.490;22.098;2023-04-03T00:43:37;12.93;58.22
70826;SHT31;58446;41.490;22.098;2023-04-03T00:46:02;12.92;58.06
70826;SHT31;58446;41.490;22.098;2023-04-03T00:48:34;12.83;58.09
70826;SHT31;58446;41.490;22.098;2023-04-03T00:51:04;12.95;57.91
70826;SHT31;58446;41.490;22.098;2023-04-03T00:53:37;12.77;58.17
70826;SHT31;58446;41.490;22.098;2023-04-03T00:56:09;12.69;58.53
70826;SHT31;58446;41.490;22.098;2023-04-03T00:58:44;12.56;58.95
70826;SHT31;58446;41.490;22.098;2023-04-03T01:01:14;12.31;59.78
70826;SHT31;58446;41.490;22.098;2023-04-03T01:03:41;12.38;59.56
70826;SHT31;58446;41.490;22.098;2023-04-03T01:06:07;12.63;58.87
70826;SHT31;58446;41.490;22.098;2023-04-03T01:08:33;12.87;58.17
70826;SHT31;58446;41.490;22.098;2023-04-03T01:10:59;12.79;58.42
70826;SHT31;58446;41.490;22.098;2023-04-03T01:13:28;12.69;58.75
70826;SHT31;58446;41.490;22.098;2023-04-03T01:15:54;12.63;58.96
70826;SHT31;58446;41.490;22.098;2023-04-03T01:18:21;12.62;59.08
70826;SHT31;58446;41.490;22.098;2023-04-03T01:21:14;12.53;59.36
70826;SHT31;58446;41.490;22.098;2023-04-03T01:24:20;12.31;60.10
70826;SHT31;58446;41.490;22.098;2023-04-03T01:26:48;12.38;59.78
70826;SHT31;58446;41.490;22.098;2023-04-03T01:29:14;12.65;59.22
70826;SHT31;58446;41.490;22.098;2023-04-03T01:31:49;12.75;58.83
70826;SHT31;58446;41.490;22.098;2023-04-03T01:34:15;12.63;59.23
70826;SHT31;58446;41.490;22.098;2023-04-03T01:36:40;12.15;60.33
70826;SHT31;58446;41.490;22.098;2023-04-03T01:39:07;11.67;62.47
70826;SHT31;58446;41.490;22.098;2023-04-03T01:41:33;11.87;61.81
70826;SHT31;58446;41.490;22.098;2023-04-03T01:43:58;12.04;61.28
70826;SHT31;58446;41.490;22.098;2023-04-03T01:46:24;12.24;60.60
70826;SHT31;58446;41.490;22.098;2023-04-03T01:48:50;12.27;60.46
70826;SHT31;58446;41.490;22.098;2023-04-03T01:51:15;12.38;60.27
70826;SHT31;58446;41.490;22.098;2023-04-03T01:53:41;12.36;60.11
70826;SHT31;58446;41.490;22.098;2023-04-03T01:56:07;12.07;60.01
70826;SHT31;58446;41.490;22.098;2023-04-03T01:58:33;11.80;60.97
70826;SHT31;58446;41.490;22.098;2023-04-03T02:00:59;11.73;61.76
70826;SHT31;58446;41.490;22.098;2023-04-03T02:03:26;12.01;60.71
70826;SHT31;58446;41.490;22.098;2023-04-03T02:05:51;11.76;61.22
70826;SHT31;58446;41.490;22.098;2023-04-03T02:08:17;11.74;61.62
70826;SHT31;58446;41.490;22.098;2023-04-03T02:10:44;11.73;61.77
70826;SHT31;58446;41.490;22.098;2023-04-03T02:13:10;11.78;61.02
70826;SHT31;58446;41.490;22.098;2023-04-03T02:15:39;12.05;60.79
70826;SHT31;58446;41.490;22.098;2023-04-03T02:18:05;11.69;61.22
70826;SHT31;58446;41.490;22.098;2023-04-03T02:20:31;11.66;61.74
70826;SHT31;58446;41.490;22.098;2023-04-03T02:22:57;11.80;61.36
70826;SHT31;58446;41.490;22.098;2023-04-03T02:25:22;12.08;60.67
70826;SHT31;58446;41.490;22.098;2023-04-03T02:27:48;12.22;60.38
70826;SHT31;58446;41.490;22.098;2023-04-03T02:30:14;12.22;60.20
70826;SHT31;58446;41.490;22.098;2023-04-03T02:32:41;12.21;60.40
70826;SHT31;58446;41.490;22.098;2023-04-03T02:35:07;12.08;60.86
70826;SHT31;58446;41.490;22.098;2023-04-03T02:37:33;12.17;60.75
70826;SHT31;58446;41.490;22.098;2023-04-03T02:39:59;12.10;61.08
70826;SHT31;58446;41.490;22.098;2023-04-03T02:42:25;12.04;61.15
70826;SHT31;58446;41.490;22.098;2023-04-03T02:44:50;11.95;61.40
70826;SHT31;58446;41.490;22.098;2023-04-03T02:47:16;11.98;61.31
70826;SHT31;58446;41.490;22.098;2023-04-03T02:49:41;11.90;61.39
70826;SHT31;58446;41.490;22.098;2023-04-03T02:52:10;10.88;64.77
70826;SHT31;58446;41.490;22.098;2023-04-03T02:54:36;10.78;65.38
70826;SHT31;58446;41.490;22.098;2023-04-03T02:57:01;11.26;63.80
70826;SHT31;58446;41.490;22.098;2023-04-03T02:59:27;10.95;64.28
70826;SHT31;58446;41.490;22.098;2023-04-03T03:01:53;11.23;63.52
70826;SHT31;58446;41.490;22.098;2023-04-03T03:04:18;11.19;63.27
70826;SHT31;58446;41.490;22.098;2023-04-03T03:06:44;10.74;64.09
70826;SHT31;58446;41.490;22.098;2023-04-03T03:09:10;10.75;64.80
70826;SHT31;58446;41.490;22.098;2023-04-03T03:11:35;11.09;64.33
70826;SHT31;58446;41.490;22.098;2023-04-03T03:14:01;11.40;63.05
70826;SHT31;58446;41.490;22.098;2023-04-03T03:16:27;11.69;62.06
70826;SHT31;58446;41.490;22.098;2023-04-03T03:18:52;11.84;61.43
70826;SHT31;58446;41.490;22.098;2023-04-03T03:21:18;11.87;61.26
70826;SHT31;58446;41.490;22.098;2023-04-03T03:23:43;11.87;61.18
70826;SHT31;58446;41.490;22.098;2023-04-03T03:26:10;11.83;61.35
70826;SHT31;58446;41.490;22.098;2023-04-03T03:28:37;12.04;60.48
70826;SHT31;58446;41.490;22.098;2023-04-03T03:31:04;12.05;60.72
70826;SHT31;58446;41.490;22.098;2023-04-03T03:33:30;11.73;61.20
70826;SHT31;58446;41.490;22.098;2023-04-03T03:35:56;11.39;62.51
70826;SHT31;58446;41.490;22.098;2023-04-03T03:38:22;11.32;62.85
70826;SHT31;58446;41.490;22.098;2023-04-03T03:40:49;11.30;63.11
70826;SHT31;58446;41.490;22.098;2023-04-03T03:43:15;11.29;62.98
70826;SHT31;58446;41.490;22.098;2023-04-03T03:45:41;11.08;63.47
70826;SHT31;58446;41.490;22.098;2023-04-03T03:48:07;10.74;64.53
70826;SHT31;58446;41.490;22.098;2023-04-03T03:50:32;10.94;64.54
70826;SHT31;58446;41.490;22.098;2023-04-03T03:52:58;11.11;63.49
70826;SHT31;58446;41.490;22.098;2023-04-03T03:55:24;10.95;63.99
70826;SHT31;58446;41.490;22.098;2023-04-03T03:57:49;11.14;63.60
70826;SHT31;58446;41.490;22.098;2023-04-03T04:00:15;11.27;63.07
70826;SHT31;58446;41.490;22.098;2023-04-03T04:02:42;11.40;62.66
70826;SHT31;58446;41.490;22.098;2023-04-03T04:05:07;11.63;61.92
70826;SHT31;58446;41.490;22.098;2023-04-03T04:07:33;11.69;61.63
70826;SHT31;58446;41.490;22.098;2023-04-03T04:09:58;11.57;61.91
70826;SHT31;58446;41.490;22.098;2023-04-03T04:12:24;11.69;61.69
70826;SHT31;58446;41.490;22.098;2023-04-03T04:14:50;11.67;61.66
70826;SHT31;58446;41.490;22.098;2023-04-03T04:17:15;11.27;62.51
70826;SHT31;58446;41.490;22.098;2023-04-03T04:19:41;10.58;64.46
70826;SHT31;58446;41.490;22.098;2023-04-03T04:22:07;10.07;66.69
70826;SHT31;58446;41.490;22.098;2023-04-03T04:24:33;10.46;66.06
70826;SHT31;58446;41.490;22.098;2023-04-03T04:26:58;10.87;64.59
70826;SHT31;58446;41.490;22.098;2023-04-03T04:29:24;11.06;63.90
70826;SHT31;58446;41.490;22.098;2023-04-03T04:31:50;11.19;63.29
70826;SHT31;58446;41.490;22.098;2023-04-03T04:34:15;11.29;63.07
70826;SHT31;58446;41.490;22.098;2023-04-03T04:36:41;11.30;62.96
70826;SHT31;58446;41.490;22.098;2023-04-03T04:39:07;11.36;62.78
70826;SHT31;58446;41.490;22.098;2023-04-03T04:41:33;11.37;62.64
70826;SHT31;58446;41.490;22.098;2023-04-03T04:43:59;11.27;63.00
70826;SHT31;58446;41.490;22.098;2023-04-03T04:46:25;11.30;62.92
70826;SHT31;58446;41.490;22.098;2023-04-03T04:48:51;11.27;62.81
70826;SHT31;58446;41.490;22.098;2023-04-03T04:51:17;11.40;62.48
70826;SHT31;58446;41.490;22.098;2023-04-03T04:53:42;11.43;62.46
70826;SHT31;58446;41.490;22.098;2023-04-03T04:56:10;11.55;62.06
70826;SHT31;58446;41.490;22.098;2023-04-03T04:58:36;11.50;62.14
70826;SHT31;58446;41.490;22.098;2023-04-03T05:01:04;11.66;61.90
70826;SHT31;58446;41.490;22.098;2023-04-03T05:03:30;11.81;61.16
70826;SHT31;58446;41.490;22.098;2023-04-03T05:05:56;11.71;61.65
70826;SHT31;58446;41.490;22.098;2023-04-03T05:08:21;11.65;61.86
70826;SHT31;58446;41.490;22.098;2023-04-03T05:10:47;11.56;62.12
70826;SHT31;58446;41.490;22.098;2023-04-03T05:13:14;11.46;62.46
70826;SHT31;58446;41.490;22.098;2023-04-03T05:15:39;11.47;62.43
70826;SHT31;58446;41.490;22.098;2023-04-03T05:18:05;11.88;61.30
70826;SHT31;58446;41.490;22.098;2023-04-03T05:20:32;11.67;61.86
70826;SHT31;58446;41.490;22.098;2023-04-03T05:22:58;11.65;61.84
70826;SHT31;58446;41.490;22.098;2023-04-03T05:25:23;11.66;62.11
70826;SHT31;58446;41.490;22.098;2023-04-03T05:27:50;11.63;62.20
70826;SHT31;58446;41.490;22.098;2023-04-03T05:30:16;11.83;61.50
70826;SHT31;58446;41.490;22.098;2023-04-03T05:32:42;11.69;62.11
70826;SHT31;58446;41.490;22.098;2023-04-03T05:35:08;11.60;62.36
70826;SHT31;58446;41.490;22.098;2023-04-03T05:37:34;11.69;62.13
70826;SHT31;58446;41.490;22.098;2023-04-03T05:40:00;11.95;61.52
70826;SHT31;58446;41.490;22.098;2023-04-03T05:42:27;11.90;61.59
70826;SHT31;58446;41.490;22.098;2023-04-03T05:44:52;11.95;61.49
70826;SHT31;58446;41.490;22.098;2023-04-03T05:47:18;11.97;61.51
70826;SHT31;58446;41.490;22.098;2023-04-03T05:49:45;11.91;61.62
70826;SHT31;58446;41.490;22.098;2023-04-03T05:52:33;11.39;64.17
70826;SHT31;58446;41.490;22.098;2023-04-03T05:54:58;11.15;65.27
70826;SHT31;58446;41.490;22.098;2023-04-03T05:57:24;11.33;64.14
70826;SHT31;58446;41.490;22.098;2023-04-03T05:59:50;11.57;63.41
70826;SHT31;58446;41.490;22.098;2023-04-03T06:02:19;11.73;62.98
70826;SHT31;58446;41.490;22.098;2023-04-03T06:04:45;11.83;62.71
70826;SHT31;58446;41.490;22.098;2023-04-03T06:07:15;11.76;63.00
70826;SHT31;58446;41.490;22.098;2023-04-03T06:09:41;11.66;63.76
70826;SHT31;58446;41.490;22.098;2023-04-03T06:12:08;11.70;63.37
70826;SHT31;58446;41.490;22.098;2023-04-03T06:14:34;11.87;62.94
70826;SHT31;58446;41.490;22.098;2023-04-03T06:16:59;11.88;62.85
70826;SHT31;58446;41.490;22.098;2023-04-03T06:19:27;11.84;62.97
70826;SHT31;58446;41.490;22.098;2023-04-03T06:21:54;11.84;63.00
70826;SHT31;58446;41.490;22.098;2023-04-03T06:24:22;11.88;62.89
70826;SHT31;58446;41.490;22.098;2023-04-03T06:26:49;11.99;62.58
70826;SHT31;58446;41.490;22.098;2023-04-03T06:29:17;11.81;63.34
70826;SHT31;58446;41.490;22.098;2023-04-03T06:31:43;11.74;64.75
70826;SHT31;58446;41.490;22.098;2023-04-03T06:34:10;11.59;64.95
70826;SHT31;58446;41.490;22.098;2023-04-03T06:36:37;11.36;64.99
70826;SHT31;58446;41.490;22.098;2023-04-03T06:39:04;11.43;64.86
70826;SHT31;58446;41.490;22.098;2023-04-03T06:41:30;11.36;64.41
70826;SHT31;58446;41.490;22.098;2023-04-03T06:43:55;11.15;65.22
70826;SHT31;58446;41.490;22.098;2023-04-03T06:46:24;10.98;65.41
70826;SHT31;58446;41.490;22.098;2023-04-03T06:48:51;10.81;66.81
70826;SHT31;58446;41.490;22.098;2023-04-03T06:51:25;11.16;65.98
70826;SHT31;58446;41.490;22.098;2023-04-03T06:53:53;11.37;65.08
70826;SHT31;58446;41.490;22.098;2023-04-03T06:56:19;11.25;65.20
70826;SHT31;58446;41.490;22.098;2023-04-03T06:58:46;11.33;65.03
70826;SHT31;58446;41.490;22.098;2023-04-03T07:01:13;11.77;63.69
70826;SHT31;58446;41.490;22.098;2023-04-03T07:03:40;11.88;63.16
70826;SHT31;58446;41.490;22.098;2023-04-03T07:06:06;11.88;63.16
70826;SHT31;58446;41.490;22.098;2023-04-03T07:08:32;11.95;62.73
70826;SHT31;58446;41.490;22.098;2023-04-03T07:10:58;12.24;61.94
70826;SHT31;58446;41.490;22.098;2023-04-03T07:13:24;12.31;62.00
70826;SHT31;58446;41.490;22.098;2023-04-03T07:15:50;12.41;61.56
70826;SHT31;58446;41.490;22.098;2023-04-03T07:18:15;12.46;61.17
70826;SHT31;58446;41.490;22.098;2023-04-03T07:20:42;12.21;62.92
70826;SHT31;58446;41.490;22.098;2023-04-03T07:23:08;11.93;62.99
70826;SHT31;58446;41.490;22.098;2023-04-03T07:25:36;12.25;62.06
70826;SHT31;58446;41.490;22.098;2023-04-03T07:28:03;12.34;61.57
70826;SHT31;58446;41.490;22.098;2023-04-03T07:30:29;12.52;61.15
70826;SHT31;58446;41.490;22.098;2023-04-03T07:32:55;12.55;61.33
70826;SHT31;58446;41.490;22.098;2023-04-03T07:35:20;12.56;61.18
70826;SHT31;58446;41.490;22.098;2023-04-03T07:37:46;12.73;60.51
70826;SHT31;58446;41.490;22.098;2023-04-03T07:40:12;12.72;60.72
70826;SHT31;58446;41.490;22.098;2023-04-03T07:42:38;12.82;60.30
70826;SHT31;58446;41.490;22.098;2023-04-03T07:45:04;12.55;62.33
70826;SHT31;58446;41.490;22.098;2023-04-03T07:47:30;12.73;60.83
70826;SHT31;58446;41.490;22.098;2023-04-03T07:49:57;12.86;60.50
70826;SHT31;58446;41.490;22.098;2023-04-03T07:52:23;12.83;60.46
70826;SHT31;58446;41.490;22.098;2023-04-03T07:54:49;12.85;60.46
70826;SHT31;58446;41.490;22.098;2023-04-03T07:57:15;12.76;60.83
70826;SHT31;58446;41.490;22.098;2023-04-03T07:59:41;12.75;61.60
70826;SHT31;58446;41.490;22.098;2023-04-03T08:02:11;12.77;61.00
70826;SHT31;58446;41.490;22.098;2023-04-03T08:04:37;12.75;61.11
70826;SHT31;58446;41.490;22.098;2023-04-03T08:07:03;12.66;61.67
70826;SHT31;58446;41.490;22.098;2023-04-03T08:09:29;12.41;62.66
70826;SHT31;58446;41.490;22.098;2023-04-03T08:11:55;12.35;63.14
70826;SHT31;58446;41.490;22.098;2023-04-03T08:14:20;12.28;63.40
70826;SHT31;58446;41.490;22.098;2023-04-03T08:16:47;12.15;63.88
70826;SHT31;58446;41.490;22.098;2023-04-03T08:19:14;12.07;63.71
70826;SHT31;58446;41.490;22.098;2023-04-03T08:21:41;12.04;64.29
70826;SHT31;58446;41.490;22.098;2023-04-03T08:24:08;12.01;64.41
70826;SHT31;58446;41.490;22.098;2023-04-03T08:26:34;11.88;65.44
70826;SHT31;58446;41.490;22.098;2023-04-03T08:29:00;11.74;64.95
70826;SHT31;58446;41.490;22.098;2023-04-03T08:31:26;11.66;66.43
70826;SHT31;58446;41.490;22.098;2023-04-03T08:33:53;11.50;66.71
70826;SHT31;58446;41.490;22.098;2023-04-03T08:36:27;11.43;67.48
70826;SHT31;58446;41.490;22.098;2023-04-03T08:38:55;11.50;67.45
70826;SHT31;58446;41.490;22.098;2023-04-03T08:41:36;11.53;67.56
70826;SHT31;58446;41.490;22.098;2023-04-03T08:44:17;11.65;68.15
70826;SHT31;58446;41.490;22.098;2023-04-03T08:46:55;11.56;68.71
70826;SHT31;58446;41.490;22.098;2023-04-03T08:49:33;11.44;70.41
70826;SHT31;58446;41.490;22.098;2023-04-03T08:57:53;11.14;71.42
70826;SHT31;58446;41.490;22.098;2023-04-03T09:00:24;11.04;72.96
70826;SHT31;58446;41.490;22.098;2023-04-03T09:02:55;11.05;72.22
70826;SHT31;58446;41.490;22.098;2023-04-03T09:05:35;10.99;73.19
70826;SHT31;58446;41.490;22.098;2023-04-03T09:08:21;10.82;73.64
70826;SHT31;58446;41.490;22.098;2023-04-03T09:10:48;10.53;75.79
70826;SHT31;58446;41.490;22.098;2023-04-03T09:16:16;10.69;76.99
70826;SHT31;58446;41.490;22.098;2023-04-03T09:18:48;10.68;76.10
70826;SHT31;58446;41.490;22.098;2023-04-03T09:21:21;10.75;76.67
70826;SHT31;58446;41.490;22.098;2023-04-03T09:23:56;10.84;75.43
70826;SHT31;58446;41.490;22.098;2023-04-03T09:26:28;10.84;75.42
70826;SHT31;58446;41.490;22.098;2023-04-03T09:28:57;10.69;75.09
70826;SHT31;58446;41.490;22.098;2023-04-03T09:31:26;10.67;75.85
70826;SHT31;58446;41.490;22.098;2023-04-03T09:33:59;10.65;77.09
70826;SHT31;58446;41.490;22.098;2023-04-03T09:36:45;10.61;77.27
70826;SHT31;58446;41.490;22.098;2023-04-03T09:39:22;10.51;77.22
70826;SHT31;58446;41.490;22.098;2023-04-03T09:42:03;10.48;76.96
70826;SHT31;58446;41.490;22.098;2023-04-03T09:44:36;10.47;76.73
70826;SHT31;58446;41.490;22.098;2023-04-03T09:47:24;10.64;75.77
70826;SHT31;58446;41.490;22.098;2023-04-03T09:49:54;10.94;73.86
70826;SHT31;58446;41.490;22.098;2023-04-03T09:52:34;11.14;73.23
70826;SHT31;58446;41.490;22.098;2023-04-03T09:55:07;11.37;73.61
70826;SHT31;58446;41.490;22.098;2023-04-03T09:57:33;11.60;71.08
70826;SHT31;58446;41.490;22.098;2023-04-03T10:00:01;11.87;69.99
70826;SHT31;58446;41.490;22.098;2023-04-03T10:02:39;12.04;69.39
70826;SHT31;58446;41.490;22.098;2023-04-03T10:05:26;12.18;69.00
70826;SHT31;58446;41.490;22.098;2023-04-03T10:10:38;12.31;68.51
70826;SHT31;58446;41.490;22.098;2023-04-03T10:13:06;12.41;68.25
70826;SHT31;58446;41.490;22.098;2023-04-03T10:15:39;12.53;68.02
70826;SHT31;58446;41.490;22.098;2023-04-03T10:18:28;12.56;67.94
70826;SHT31;58446;41.490;22.098;2023-04-03T10:21:02;12.62;67.46
70826;SHT31;58446;41.490;22.098;2023-04-03T10:23:45;12.66;67.62
70826;SHT31;58446;41.490;22.098;2023-04-03T10:40:57;12.02;73.35
70826;SHT31;58446;41.490;22.098;2023-04-03T10:44:05;11.88;72.59
70826;SHT31;58446;41.490;22.098;2023-04-03T10:46:38;11.69;73.54
70826;SHT31;58446;41.490;22.098;2023-04-03T10:51:49;11.66;71.71
70826;SHT31;58446;41.490;22.098;2023-04-03T10:54:36;11.55;72.60
70826;SHT31;58446;41.490;22.098;2023-04-03T10:57:11;11.62;72.28
70826;SHT31;58446;41.490;22.098;2023-04-03T10:59:56;11.69;72.44
70826;SHT31;58446;41.490;22.098;2023-04-03T11:02:41;11.56;74.23
70826;SHT31;58446;41.490;22.098;2023-04-03T11:05:41;11.53;74.65
70826;SHT31;58446;41.490;22.098;2023-04-03T11:10:59;12.05;71.16
70826;SHT31;58446;41.490;22.098;2023-04-03T11:13:57;12.31;70.24
70826;SHT31;58446;41.490;22.098;2023-04-03T11:16:31;12.44;69.92
70826;SHT31;58446;41.490;22.098;2023-04-03T11:19:35;12.32;72.08
70826;SHT31;58446;41.490;22.098;2023-04-03T11:22:29;12.32;70.62
70826;SHT31;58446;41.490;22.098;2023-04-03T11:25:06;12.35;71.72
70826;SHT31;58446;41.490;22.098;2023-04-03T11:27:48;12.34;70.96
70826;SHT31;58446;41.490;22.098;2023-04-03T11:31:10;12.20;73.05
70826;SHT31;58446;41.490;22.098;2023-04-03T11:36:28;12.63;69.90
70826;SHT31;58446;41.490;22.098;2023-04-03T11:38:59;12.69;69.63
70826;SHT31;58446;41.490;22.098;2023-04-03T11:41:28;12.72;69.75
70826;SHT31;58446;41.490;22.098;2023-04-03T11:46:57;12.68;70.61
70826;SHT31;58446;41.490;22.098;2023-04-03T11:50:00;12.68;70.76
70826;SHT31;58446;41.490;22.098;2023-04-03T12:05:54;12.50;71.91
70826;SHT31;58446;41.490;22.098;2023-04-03T12:16:27;12.52;73.08
70826;SHT31;58446;41.490;22.098;2023-04-03T12:26:47;12.45;74.23
70826;SHT31;58446;41.490;22.098;2023-04-03T12:48:26;12.59;73.07
70826;SHT31;58446;41.490;22.098;2023-04-03T12:50:54;12.41;75.46
70826;SHT31;58446;41.490;22.098;2023-04-03T12:53:32;12.56;73.43
70826;SHT31;58446;41.490;22.098;2023-04-03T12:56:20;12.55;73.34
70826;SHT31;58446;41.490;22.098;2023-04-03T12:58:48;12.52;74.84
70826;SHT31;58446;41.490;22.098;2023-04-03T13:01:20;12.46;75.79
70826;SHT31;58446;41.490;22.098;2023-04-03T13:03:57;12.56;73.56
70826;SHT31;58446;41.490;22.098;2023-04-03T13:06:53;12.56;74.15
70826;SHT31;58446;41.490;22.098;2023-04-03T13:09:26;12.60;73.64
70826;SHT31;58446;41.490;22.098;2023-04-03T13:12:09;12.76;72.99
70826;SHT31;58446;41.490;22.098;2023-04-03T13:14:36;12.66;74.30
70826;SHT31;58446;41.490;22.098;2023-04-03T13:17:12;12.39;77.96
70826;SHT31;58446;41.490;22.098;2023-04-03T13:19:39;12.59;73.75
70826;SHT31;58446;41.490;22.098;2023-04-03T13:22:36;12.46;76.82
70826;SHT31;58446;41.490;22.098;2023-04-03T13:25:11;12.45;76.37
70826;SHT31;58446;41.490;22.098;2023-04-03T13:27:38;12.35;75.53
70826;SHT31;58446;41.490;22.098;2023-04-03T13:30:26;12.28;78.07
70826;SHT31;58446;41.490;22.098;2023-04-03T13:32:53;11.95;78.11
70826;SHT31;58446;41.490;22.098;2023-04-03T13:35:37;11.70;80.62
70826;SHT31;58446;41.490;22.098;2023-04-03T13:40:56;11.77;78.88
70826;SHT31;58446;41.490;22.098;2023-04-03T13:43:29;11.95;78.55
70826;SHT31;58446;41.490;22.098;2023-04-03T13:46:20;12.10;78.79
70826;SHT31;58446;41.490;22.098;2023-04-03T13:48:47;12.17;78.05
70826;SHT31;58446;41.490;22.098;2023-04-03T13:54:00;12.44;76.30
70826;SHT31;58446;41.490;22.098;2023-04-03T13:56:29;12.58;74.85
70826;SHT31;58446;41.490;22.098;2023-04-03T13:59:06;12.60;74.96
70826;SHT31;58446;41.490;22.098;2023-04-03T14:04:26;12.70;75.00
70826;SHT31;58446;41.490;22.098;2023-04-03T14:06:53;12.63;75.17
70826;SHT31;58446;41.490;22.098;2023-04-03T14:09:20;12.56;75.60
70826;SHT31;58446;41.490;22.098;2023-04-03T14:11:48;12.50;75.96
70826;SHT31;58446;41.490;22.098;2023-04-03T14:14:20;12.42;77.07
70826;SHT31;58446;41.490;22.098;2023-04-03T14:16:51;12.28;78.22
70826;SHT31;58446;41.490;22.098;2023-04-03T14:19:26;12.39;76.80
70826;SHT31;58446;41.490;22.098;2023-04-03T14:21:53;12.24;79.20
70826;SHT31;58446;41.490;22.098;2023-04-03T14:24:20;12.24;78.70
70826;SHT31;58446;41.490;22.098;2023-04-03T14:26:47;12.27;79.04
70826;SHT31;58446;41.490;22.098;2023-04-03T14:29:13;12.31;77.46
70826;SHT31;58446;41.490;22.098;2023-04-03T14:31:41;12.35;77.91
70826;SHT31;58446;41.490;22.098;2023-04-03T14:34:12;12.35;77.38
70826;SHT31;58446;41.490;22.098;2023-04-03T14:36:39;12.21;79.87
70826;SHT31;58446;41.490;22.098;2023-04-03T14:39:07;12.22;80.14
70826;SHT31;58446;41.490;22.098;2023-04-03T14:41:34;12.21;79.06
70826;SHT31;58446;41.490;22.098;2023-04-03T14:44:00;12.20;79.49
70826;SHT31;58446;41.490;22.098;2023-04-03T14:46:35;12.13;80.73
70826;SHT31;58446;41.490;22.098;2023-04-03T14:49:02;12.22;79.07
70826;SHT31;58446;41.490;22.098;2023-04-03T14:51:33;12.04;80.37
70826;SHT31;58446;41.490;22.098;2023-04-03T14:53:59;12.07;79.98
70826;SHT31;58446;41.490;22.098;2023-04-03T14:56:27;12.15;79.14
70826;SHT31;58446;41.490;22.098;2023-04-03T14:58:58;12.13;79.39
70826;SHT31;58446;41.490;22.098;2023-04-03T15:01:24;12.14;78.79
70826;SHT31;58446;41.490;22.098;2023-04-03T15:03:51;12.18;79.13
70826;SHT31;58446;41.490;22.098;2023-04-03T15:06:16;12.25;78.24
70826;SHT31;58446;41.490;22.098;2023-04-03T15:08:43;12.32;77.62
70826;SHT31;58446;41.490;22.098;2023-04-03T15:11:10;12.34;77.42
70826;SHT31;58446;41.490;22.098;2023-04-03T15:13:37;12.38;77.08
70826;SHT31;58446;41.490;22.098;2023-04-03T15:16:05;12.44;76.93
70826;SHT31;58446;41.490;22.098;2023-04-03T15:18:35;12.41;76.83
70826;SHT31;58446;41.490;22.098;2023-04-03T15:21:04;12.17;79.34
70826;SHT31;58446;41.490;22.098;2023-04-03T15:23:30;11.98;80.67
70826;SHT31;58446;41.490;22.098;2023-04-03T15:25:56;12.02;79.34
70826;SHT31;58446;41.490;22.098;2023-04-03T15:28:30;11.99;79.85
70826;SHT31;58446;41.490;22.098;2023-04-03T15:30:57;12.13;78.64
70826;SHT31;58446;41.490;22.098;2023-04-03T15:33:23;12.24;78.21
70826;SHT31;58446;41.490;22.098;2023-04-03T15:35:49;12.35;77.39
70826;SHT31;58446;41.490;22.098;2023-04-03T15:38:14;12.44;77.06
70826;SHT31;58446;41.490;22.098;2023-04-03T15:40:40;12.46;77.25
70826;SHT31;58446;41.490;22.098;2023-04-03T15:43:07;12.44;77.17
70826;SHT31;58446;41.490;22.098;2023-04-03T15:45:35;12.44;77.24
70826;SHT31;58446;41.490;22.098;2023-04-03T15:48:02;12.49;76.84
70826;SHT31;58446;41.490;22.098;2023-04-03T15:50:28;12.52;76.61
70826;SHT31;58446;41.490;22.098;2023-04-03T15:52:54;12.53;76.83
70826;SHT31;58446;41.490;22.098;2023-04-03T15:55:31;12.48;76.83
70826;SHT31;58446;41.490;22.098;2023-04-03T15:57:57;12.45;77.43
70826;SHT31;58446;41.490;22.098;2023-04-03T16:00:24;12.25;79.03
70826;SHT31;58446;41.490;22.098;2023-04-03T16:02:54;12.44;77.29
70826;SHT31;58446;41.490;22.098;2023-04-03T16:05:21;12.49;77.17
70826;SHT31;58446;41.490;22.098;2023-04-03T16:07:47;12.48;77.38
70826;SHT31;58446;41.490;22.098;2023-04-03T16:10:16;12.52;77.51
70826;SHT31;58446;41.490;22.098;2023-04-03T16:12:42;12.46;77.71
70826;SHT31;58446;41.490;22.098;2023-04-03T16:15:08;12.45;77.64
70826;SHT31;58446;41.490;22.098;2023-04-03T16:17:35;12.32;80.28
70826;SHT31;58446;41.490;22.098;2023-04-03T16:20:03;11.91;81.07
70826;SHT31;58446;41.490;22.098;2023-04-03T16:22:29;11.60;81.94
70826;SHT31;58446;41.490;22.098;2023-04-03T16:24:55;11.39;82.54
70826;SHT31;58446;41.490;22.098;2023-04-03T16:27:22;11.36;82.61
70826;SHT31;58446;41.490;22.098;2023-04-03T16:29:47;11.22;83.53
70826;SHT31;58446;41.490;22.098;2023-04-03T16:32:14;11.14;84.42
70826;SHT31;58446;41.490;22.098;2023-04-03T16:34:40;11.29;83.83
70826;SHT31;58446;41.490;22.098;2023-04-03T16:37:06;11.47;82.56
70826;SHT31;58446;41.490;22.098;2023-04-03T16:39:34;11.56;82.99
70826;SHT31;58446;41.490;22.098;2023-04-03T16:42:00;11.76;81.20
70826;SHT31;58446;41.490;22.098;2023-04-03T16:44:26;11.57;83.71
70826;SHT31;58446;41.490;22.098;2023-04-03T16:46:52;11.71;82.72
70826;SHT31;58446;41.490;22.098;2023-04-03T16:49:17;11.83;81.14
70826;SHT31;58446;41.490;22.098;2023-04-03T16:51:43;11.91;80.67
70826;SHT31;58446;41.490;22.098;2023-04-03T16:54:09;11.84;82.03
70826;SHT31;58446;41.490;22.098;2023-04-03T16:56:36;11.99;79.99
70826;SHT31;58446;41.490;22.098;2023-04-03T16:59:02;12.11;79.34
70826;SHT31;58446;41.490;22.098;2023-04-03T17:01:28;12.15;79.27
70826;SHT31;58446;41.490;22.098;2023-04-03T17:03:54;12.18;79.04